WetterOnline ( https://www.wetteronline.de )

Wetter aktuell Cottbus

Aktuelles Wetter: Cottbus (70m)

6-stündlich | Neueste Meldungen
Ortszeit Temperatur Wetter
Mo, 22.04. 2:00 11.4° C leicht bewölkt
So, 21.04. 20:00 17.4° C wolkig
So, 21.04. 14:00 20.3° C wolkenlos
So, 21.04. 8:00 8.6° C wolkenlos
So, 21.04. 2:00 5.9° C wolkenlos
Sa, 20.04. 20:00 18.5° C bedeckt
Sa, 20.04. 14:00 21.7° C leicht bewölkt
Sa, 20.04. 8:00 7.6° C wolkenlos
Ortszeit Temperatur Wetter
Mo, 22.04. 2:00 11.4° C leicht bewölkt
Mo, 22.04. 1:40 11.6° C leicht bewölkt
Mo, 22.04. 1:30 12.0° C fast wolkenlos
Mo, 22.04. 1:20 12.0° C fast wolkenlos
Mo, 22.04. 1:10 12.0° C leicht bewölkt
Mo, 22.04. 1:00 12.2° C leicht bewölkt
Mo, 22.04. 0:50 12.2° C leicht bewölkt
Mo, 22.04. 0:30 10.3° C wolkenlos
Mo, 22.04. 0:00 8.4° C wolkenlos
So, 21.04. 23:30 8.6° C wolkenlos
So, 21.04. 23:00 8.9° C leicht bewölkt
Ortszeit Relative Feuchte Sichtweite
Mo, 22.04. 2:00 46% 50 km
So, 21.04. 20:00 34% 70 km
So, 21.04. 14:00 27% 35 km
So, 21.04. 8:00 58% 28 km
So, 21.04. 2:00 72% 11 km
Sa, 20.04. 20:00 29% 40 km
Sa, 20.04. 14:00 22% 30 km
Sa, 20.04. 8:00 59% 25 km
Ortszeit Relative Feuchte Sichtweite
Mo, 22.04. 2:00 46% 50 km
Mo, 22.04. 1:40 45% -
Mo, 22.04. 1:30 45% 45 km
Mo, 22.04. 1:20 45% -
Mo, 22.04. 1:10 45% -
Mo, 22.04. 1:00 45% 45 km
Mo, 22.04. 0:50 45% -
Mo, 22.04. 0:30 56% 45 km
Mo, 22.04. 0:00 65% 40 km
So, 21.04. 23:30 65% 40 km
So, 21.04. 23:00 68% 35 km
Ortszeit Niederschlagsmenge Niederschlagsart
Mo, 22.04. 2:00 0.0 l/m2 in 6 Std. -
So, 21.04. 20:00 0.0 l/m2 in 12 Std. -
So, 21.04. 14:00 0.0 l/m2 in 6 Std. -
So, 21.04. 8:00 0.0 l/m2 in 12 Std. -
So, 21.04. 2:00 0.0 l/m2 in 6 Std. -
Sa, 20.04. 20:00 0.0 l/m2 in 12 Std. -
Sa, 20.04. 14:00 0.0 l/m2 in 6 Std. -
Sa, 20.04. 8:00 0.0 l/m2 in 12 Std. -
Ortszeit Niederschlagsmenge Niederschlagsart
Mo, 22.04. 2:00 0.0 l/m2 in 1 Std. -
Mo, 22.04. 1:40 keine Meldung -
Mo, 22.04. 1:30 0.0 l/m2 in 1 Std. -
Mo, 22.04. 1:20 keine Meldung -
Mo, 22.04. 1:10 keine Meldung -
Mo, 22.04. 1:00 0.0 l/m2 in 1 Std. -
Mo, 22.04. 0:50 keine Meldung -
Mo, 22.04. 0:30 0.0 l/m2 in 1 Std. -
Mo, 22.04. 0:00 0.0 l/m2 in 1 Std. -
So, 21.04. 23:30 0.0 l/m2 in 1 Std. -
So, 21.04. 23:00 0.0 l/m2 in 1 Std. -
Ortszeit Stärke Spitze Richtung
km/h Bft. km/h Grad Sektor
Mo, 22.04. 2:00 11 2 36 60° NO
So, 21.04. 20:00 4 1 22 20° N
So, 21.04. 14:00 7 2 22 110° O
So, 21.04. 8:00 9 2 19 80° O
So, 21.04. 2:00 6 1 15 30° NO
Sa, 20.04. 20:00 6 1 28 10° N
Sa, 20.04. 14:00 9 2 19 50° NO
Sa, 20.04. 8:00 0 0 14 - -
Ortszeit Stärke Spitze Richtung
km/h Bft. km/h Grad Sektor
Mo, 22.04. 2:00 11 2 22 60° NO
Mo, 22.04. 1:40 11 2 - 60° NO
Mo, 22.04. 1:30 11 2 18 60° NO
Mo, 22.04. 1:20 11 2 - 60° NO
Mo, 22.04. 1:10 9 2 - 60° NO
Mo, 22.04. 1:00 9 2 19 60° NO
Mo, 22.04. 0:50 9 2 - 60° NO
Mo, 22.04. 0:30 7 2 11 40° NO
Mo, 22.04. 0:00 6 1 7 40° NO
So, 21.04. 23:30 6 1 7 40° NO
So, 21.04. 23:00 4 1 11 10° N
Ortszeit Untergrenze Bedeckung Gattung
total tief tief mittel hoch
Mo, 22.04. 2:00 10500 m 6/8 0/8 - - -
So, 21.04. 20:00 10500 m 8/8 0/8 - - -
So, 21.04. 14:00 - 0/8 0/8 - - -
So, 21.04. 8:00 - 0/8 0/8 - - -
So, 21.04. 2:00 - 0/8 0/8 - - -
Sa, 20.04. 20:00 5100 m 8/8 8/8 - - -
Sa, 20.04. 14:00 7200 m 8/8 0/8 - - -
Sa, 20.04. 8:00 - 0/8 0/8 - - -
Ortszeit Bedeckungsgrad in Achtel und Wolkenuntergrenze
Mo, 22.04. 2:00 6(10500m)
Mo, 22.04. 1:40 3(10500m)
Mo, 22.04. 1:30 1(10500m)
Mo, 22.04. 1:20 1(10500m)
Mo, 22.04. 1:10 3(10500m)
Mo, 22.04. 1:00 5(10500m)
Mo, 22.04. 0:50 5(10500m)
Mo, 22.04. 0:30 keine Wolken
Mo, 22.04. 0:00 keine Wolken
So, 21.04. 23:30 keine Wolken
So, 21.04. 23:00 3(10500m)
Ortszeit Luftdruck NN (hPa) Tendenz (hPa in 3 Std.)
Mo, 22.04. 2:00 1019 - 0,3
So, 21.04. 20:00 1019 - 1,5
So, 21.04. 14:00 1023 - 2,3
So, 21.04. 8:00 1026 - 0,2
So, 21.04. 2:00 1027 - 0,6
Sa, 20.04. 20:00 1027 - 0,7
Sa, 20.04. 14:00 1029 - 1,5
Sa, 20.04. 8:00 1032 + 0,3
Ortszeit Luftdruck NN (hPa) Tendenz (hPa in 3 Std.)
Mo, 22.04. 2:00 1019 - 0,3
Mo, 22.04. 1:40 1019 keine Meldung
Mo, 22.04. 1:30 1019 - 0,3
Mo, 22.04. 1:20 1019 keine Meldung
Mo, 22.04. 1:10 1019 keine Meldung
Mo, 22.04. 1:00 1019 - 0,3
Mo, 22.04. 0:50 1019 keine Meldung
Mo, 22.04. 0:30 1019 - 0,3
Mo, 22.04. 0:00 1019 - 0,1
So, 21.04. 23:30 1019 + 0,1
So, 21.04. 23:00 1020 + 0,3
Ortszeit Schneehöhe (cm)
Mo, 22.04. 2:00 0
So, 21.04. 20:00 0
So, 21.04. 14:00 0
So, 21.04. 8:00 0
So, 21.04. 2:00 0
Sa, 20.04. 20:00 0
Sa, 20.04. 14:00 0
Sa, 20.04. 8:00 0
Ortszeit Schneehöhe (cm)
Mo, 22.04. 2:00 0
Mo, 22.04. 1:40 0
Mo, 22.04. 1:30 0
Mo, 22.04. 1:20 0
Mo, 22.04. 1:10 0
Mo, 22.04. 1:00 0
Mo, 22.04. 0:50 0
Mo, 22.04. 0:30 0
Mo, 22.04. 0:00 0
So, 21.04. 23:30 0
So, 21.04. 23:00 0
Link zu dieser Seite / Seite empfehlen

Das Wetter in ...